Time;durP1;ratioP1;P1;durP2;ratioP2;P2;SDS_P1;SDS_P2;PMS_P1;PMS_P2;Temp;Humidity;BMP_temperature;BMP_pressure;BME280_temperature;BME280_humidity;BME280_pressure;Samples;Min_cycle;Max_cycle;Signal;HPM_P1;HPM_P2
2023/01/10 00:02:09;;;;;;;10.57;4.00;;;6.20;99.90;;;;;;5092941;28;20168;-70
2023/01/10 00:04:35;;;;;;;13.00;4.30;;;6.20;99.90;;;;;;5092941;28;20521;-70
2023/01/10 00:07:00;;;;;;;15.53;4.23;;;6.20;99.90;;;;;;5092644;28;20563;-70
2023/01/10 00:09:26;;;;;;;12.33;4.40;;;6.20;99.90;;;;;;5096623;28;20608;-70
2023/01/10 00:14:36;;;;;;;19.87;4.73;;;6.20;99.90;;;;;;5096174;28;20207;-71
2023/01/10 00:17:02;;;;;;;18.00;6.07;;;6.20;99.90;;;;;;5096591;28;20168;-70
2023/01/10 00:19:28;;;;;;;11.97;5.10;;;6.10;99.90;;;;;;5096611;28;20198;-70
2023/01/10 00:21:56;;;;;;;14.83;4.70;;;6.20;99.90;;;;;;5096392;28;20164;-70
2023/01/10 00:24:22;;;;;;;14.03;4.77;;;6.10;99.90;;;;;;5096534;28;20179;-70
2023/01/10 00:26:50;;;;;;;11.40;4.90;;;6.10;99.90;;;;;;5096550;28;20309;-71
2023/01/10 00:29:24;;;;;;;12.50;4.60;;;6.10;99.90;;;;;;5096379;28;20643;-71
2023/01/10 00:31:50;;;;;;;15.00;4.63;;;6.20;99.90;;;;;;5095313;28;20242;-71
2023/01/10 00:34:16;;;;;;;14.17;4.30;;;6.20;99.90;;;;;;5094810;28;20349;-70
2023/01/10 00:36:44;;;;;;;15.53;4.10;;;6.30;99.90;;;;;;5096281;28;20183;-70
2023/01/10 00:39:10;;;;;;;9.37;3.93;;;6.30;99.90;;;;;;5096497;28;20254;-71
2023/01/10 00:44:19;;;;;;;14.37;4.33;;;6.50;99.90;;;;;;5095616;28;20266;-70
2023/01/10 00:46:45;;;;;;;12.80;4.20;;;6.50;99.90;;;;;;5094970;28;20167;-70
2023/01/10 00:49:14;;;;;;;11.23;3.60;;;6.60;99.90;;;;;;5096201;28;20635;-70
2023/01/10 00:51:39;;;;;;;16.07;4.37;;;6.60;99.90;;;;;;5096031;28;20175;-69
2023/01/10 00:54:05;;;;;;;13.93;4.07;;;6.60;99.90;;;;;;5096142;28;20207;-69
2023/01/10 00:56:30;;;;;;;9.30;3.70;;;6.70;99.90;;;;;;5095968;28;20247;-70
2023/01/10 00:58:56;;;;;;;13.87;4.20;;;6.70;99.90;;;;;;5095666;28;20595;-70
2023/01/10 01:01:22;;;;;;;9.37;3.47;;;6.70;99.90;;;;;;5095929;28;20614;-70
2023/01/10 01:03:47;;;;;;;14.13;3.80;;;6.70;99.90;;;;;;5096340;28;20183;-70
2023/01/10 01:06:13;;;;;;;12.80;3.83;;;6.80;99.90;;;;;;5095624;28;20176;-71
2023/01/10 01:08:38;;;;;;;16.67;6.10;;;6.80;99.90;;;;;;5095598;28;20176;-70
2023/01/10 01:11:04;;;;;;;10.87;3.73;;;6.90;99.90;;;;;;5095665;28;20251;-70
2023/01/10 01:13:30;;;;;;;10.70;3.70;;;6.90;99.90;;;;;;5095118;28;20231;-70
2023/01/10 01:15:59;;;;;;;12.47;3.33;;;6.90;99.90;;;;;;5095566;28;20171;-70
2023/01/10 01:18:26;;;;;;;11.87;3.70;;;6.90;99.90;;;;;;5094454;28;20172;-70
2023/01/10 01:20:59;;;;;;;14.57;3.50;;;6.90;99.90;;;;;;5095311;28;20170;-70
2023/01/10 01:23:25;;;;;;;10.93;3.80;;;6.90;99.90;;;;;;5094242;28;20213;-70
2023/01/10 01:25:55;;;;;;;16.00;3.50;;;6.80;99.90;;;;;;5095496;28;20534;-70
2023/01/10 01:28:20;;;;;;;14.80;4.00;;;6.80;99.90;;;;;;5095132;28;20178;-70
2023/01/10 01:30:46;;;;;;;12.90;3.50;;;6.70;99.90;;;;;;5095275;28;20651;-70
2023/01/10 01:33:12;;;;;;;13.07;3.73;;;6.70;99.90;;;;;;5094997;28;20319;-69
2023/01/10 01:35:41;;;;;;;13.93;3.90;;;6.70;99.90;;;;;;5093930;28;20207;-71
2023/01/10 01:38:07;;;;;;;14.27;4.27;;;6.60;99.90;;;;;;5095168;28;20192;-71
2023/01/10 01:40:33;;;;;;;19.03;4.13;;;6.50;99.90;;;;;;5095075;28;20195;-71
2023/01/10 01:42:58;;;;;;;15.37;3.60;;;6.40;99.90;;;;;;5094273;28;20172;-71
2023/01/10 01:45:38;;;;;;;10.63;3.50;;;6.40;99.90;;;;;;5093751;28;20205;-71
2023/01/10 01:48:06;;;;;;;12.60;3.67;;;6.40;99.90;;;;;;5093701;28;20176;-71
2023/01/10 01:50:53;;;;;;;15.93;4.37;;;6.30;99.90;;;;;;5094760;28;20198;-70
2023/01/10 01:53:27;;;;;;;17.33;4.03;;;6.20;99.90;;;;;;5094778;28;20196;-70
2023/01/10 01:55:56;;;;;;;17.93;4.07;;;6.20;99.90;;;;;;5094580;28;20175;-70
2023/01/10 01:58:31;;;;;;;17.43;4.20;;;6.20;99.90;;;;;;5094758;28;20168;-70
2023/01/10 02:00:57;;;;;;;19.53;3.80;;;6.20;99.90;;;;;;5094561;28;20179;-70
2023/01/10 02:03:24;;;;;;;17.77;4.37;;;6.10;99.90;;;;;;5093496;28;20179;-70
2023/01/10 02:05:49;;;;;;;14.07;3.90;;;6.10;99.90;;;;;;5094590;28;20254;-71
2023/01/10 02:08:15;;;;;;;8.90;2.90;;;6.10;99.90;;;;;;5094472;28;20192;-70
2023/01/10 02:10:52;;;;;;;12.07;3.60;;;6.10;99.90;;;;;;5094148;28;20528;-70
2023/01/10 02:13:20;;;;;;;15.93;3.97;;;6.10;99.90;;;;;;5094301;28;20215;-70
2023/01/10 02:15:46;;;;;;;13.93;3.50;;;6.20;99.90;;;;;;5094411;28;20176;-70
2023/01/10 02:18:12;;;;;;;16.30;3.90;;;6.10;99.90;;;;;;5094577;28;20650;-70
2023/01/10 02:21:01;;;;;;;15.73;3.20;;;6.20;99.90;;;;;;5092759;28;20225;-71
2023/01/10 02:23:44;;;;;;;15.57;3.90;;;6.10;99.90;;;;;;5094242;28;20266;-70
2023/01/10 02:26:15;;;;;;;17.30;3.77;;;6.10;99.90;;;;;;5093933;28;20199;-70
2023/01/10 02:29:05;;;;;;;12.43;3.63;;;6.10;99.90;;;;;;5094350;28;20176;-70
2023/01/10 02:31:53;;;;;;;15.43;3.30;;;6.00;99.90;;;;;;5094099;28;20172;-70
2023/01/10 02:34:34;;;;;;;21.13;4.50;;;6.10;99.90;;;;;;5094036;28;20192;-71
2023/01/10 02:37:11;;;;;;;13.63;3.83;;;6.00;99.90;;;;;;5092720;28;20631;-71
2023/01/10 02:39:45;;;;;;;14.20;3.97;;;6.10;99.90;;;;;;5093483;28;20194;-71
2023/01/10 02:42:17;;;;;;;17.77;3.93;;;6.00;99.90;;;;;;5093957;28;20258;-71
2023/01/10 02:44:52;;;;;;;17.67;3.73;;;5.90;99.90;;;;;;5093542;28;20227;-69
2023/01/10 02:47:18;;;;;;;20.43;3.67;;;5.90;99.90;;;;;;5093991;28;20191;-70
2023/01/10 02:49:46;;;;;;;18.07;3.70;;;5.80;99.90;;;;;;5093697;28;20179;-71
2023/01/10 02:52:16;;;;;;;15.63;4.47;;;5.80;99.90;;;;;;5092549;28;20168;-70
2023/01/10 02:54:43;;;;;;;14.20;3.70;;;5.70;99.90;;;;;;5093338;28;20367;-70
2023/01/10 02:57:29;;;;;;;17.47;4.17;;;5.70;99.90;;;;;;5093703;28;20219;-70
2023/01/10 03:00:06;;;;;;;18.57;3.77;;;5.60;99.90;;;;;;5093568;28;20188;-70
2023/01/10 03:02:35;;;;;;;13.10;4.17;;;5.60;99.90;;;;;;5093611;28;20624;-70
2023/01/10 03:05:22;;;;;;;21.33;4.03;;;5.60;99.90;;;;;;5093640;28;20232;-70
2023/01/10 03:08:06;;;;;;;12.80;3.57;;;5.50;99.90;;;;;;5092055;28;20168;-70
2023/01/10 03:11:02;;;;;;;15.77;3.80;;;5.60;99.90;;;;;;5093387;28;20238;-70
2023/01/10 03:13:52;;;;;;;16.13;3.77;;;5.50;99.90;;;;;;5092019;28;20216;-70
2023/01/10 03:16:23;;;;;;;19.17;3.67;;;5.50;99.90;;;;;;5093484;28;20167;-70
2023/01/10 03:19:00;;;;;;;16.23;3.80;;;5.50;99.90;;;;;;5093274;28;20708;-70
2023/01/10 03:21:28;;;;;;;16.13;3.63;;;5.50;99.90;;;;;;5093761;28;20195;-70
2023/01/10 03:23:59;;;;;;;15.67;4.03;;;5.50;99.90;;;;;;5093033;28;20174;-69
2023/01/10 03:26:35;;;;;;;22.13;4.07;;;5.50;99.90;;;;;;5093425;28;20203;-71
2023/01/10 03:29:08;;;;;;;19.40;3.90;;;5.60;99.90;;;;;;5093207;28;20179;-71
2023/01/10 03:31:41;;;;;;;18.20;4.33;;;5.80;99.90;;;;;;5093116;28;20164;-70
2023/01/10 03:34:08;;;;;;;16.60;3.87;;;5.80;99.90;;;;;;5093063;28;20739;-70
2023/01/10 03:36:59;;;;;;;21.03;3.87;;;6.00;99.90;;;;;;5093133;28;20200;-71
2023/01/10 03:39:48;;;;;;;22.73;4.53;;;6.00;99.90;;;;;;5092478;28;20187;-70
2023/01/10 03:42:24;;;;;;;17.30;3.90;;;6.00;99.90;;;;;;5094538;28;20167;-70
2023/01/10 03:45:01;;;;;;;16.27;4.07;;;6.00;99.90;;;;;;5095808;28;20223;-70
2023/01/10 03:47:34;;;;;;;19.57;4.67;;;6.00;99.90;;;;;;5097044;28;20167;-71
2023/01/10 03:50:08;;;;;;;20.27;4.00;;;5.90;99.90;;;;;;5097653;28;20203;-71
2023/01/10 03:52:35;;;;;;;15.93;4.53;;;5.80;99.90;;;;;;5097003;28;20168;-71
2023/01/10 03:55:02;;;;;;;17.53;4.10;;;5.70;99.90;;;;;;5097048;28;20200;-70
2023/01/10 03:57:28;;;;;;;22.33;3.90;;;5.60;99.90;;;;;;5096875;28;20639;-69
2023/01/10 03:59:58;;;;;;;18.20;3.80;;;5.60;99.90;;;;;;5097072;28;20175;-71
2023/01/10 04:02:29;;;;;;;25.13;4.60;;;5.50;99.90;;;;;;5097028;28;20171;-71
2023/01/10 04:04:55;;;;;;;16.17;4.27;;;5.50;99.90;;;;;;5097013;28;20171;-71
2023/01/10 04:07:21;;;;;;;19.70;3.80;;;5.50;99.90;;;;;;5096758;28;20168;-70
2023/01/10 04:09:47;;;;;;;20.57;4.53;;;5.50;99.90;;;;;;5096687;28;20237;-71
2023/01/10 04:12:13;;;;;;;17.93;4.47;;;5.50;99.90;;;;;;5096376;28;20582;-72
2023/01/10 04:14:38;;;;;;;14.10;4.37;;;5.40;99.90;;;;;;5096766;28;20212;-70
2023/01/10 04:17:04;;;;;;;18.83;4.77;;;5.40;99.90;;;;;;5096763;28;20250;-70
2023/01/10 04:19:30;;;;;;;13.10;3.80;;;5.40;99.90;;;;;;5096271;28;20168;-71
2023/01/10 04:21:56;;;;;;;18.77;4.30;;;5.40;99.90;;;;;;5095989;28;20261;-70
2023/01/10 04:24:21;;;;;;;15.27;4.17;;;5.30;99.90;;;;;;5096337;28;20671;-70
2023/01/10 04:26:47;;;;;;;19.13;4.20;;;5.30;99.90;;;;;;5096555;28;20168;-70
2023/01/10 04:29:13;;;;;;;16.80;4.30;;;5.30;99.90;;;;;;5096329;28;20180;-70
2023/01/10 04:31:39;;;;;;;24.93;4.60;;;5.30;99.90;;;;;;5096394;28;20183;-71
2023/01/10 04:34:05;;;;;;;22.10;5.00;;;5.20;99.90;;;;;;5096234;28;20215;-70
2023/01/10 04:36:31;;;;;;;17.97;4.77;;;5.20;99.90;;;;;;5095696;28;20175;-70
2023/01/10 04:38:57;;;;;;;19.40;4.77;;;5.20;99.90;;;;;;5096170;28;20175;-70
2023/01/10 04:41:22;;;;;;;16.73;4.23;;;5.20;99.90;;;;;;5095927;28;20247;-70
2023/01/10 04:43:48;;;;;;;14.27;4.47;;;5.10;99.90;;;;;;5095714;28;20563;-71
2023/01/10 04:46:14;;;;;;;26.30;5.27;;;5.10;99.90;;;;;;5096168;28;20263;-69
2023/01/10 04:48:40;;;;;;;23.40;5.33;;;5.10;99.90;;;;;;5095608;28;20187;-71
2023/01/10 04:51:06;;;;;;;23.47;4.57;;;5.10;99.90;;;;;;5095327;28;20221;-71
2023/01/10 04:53:31;;;;;;;24.03;4.80;;;5.10;99.90;;;;;;5094910;28;20657;-70
2023/01/10 04:56:05;;;;;;;23.00;4.60;;;5.10;99.90;;;;;;5095667;28;20168;-70
2023/01/10 04:58:35;;;;;;;22.47;4.63;;;5.10;99.90;;;;;;5095600;28;20608;-70
2023/01/10 05:01:09;;;;;;;27.87;4.90;;;5.10;99.90;;;;;;5096189;28;20164;-69
2023/01/10 05:03:34;;;;;;;23.43;4.43;;;5.10;99.90;;;;;;5095457;28;20173;-70
2023/01/10 05:06:00;;;;;;;22.60;4.80;;;5.20;99.90;;;;;;5094896;28;20172;-69
2023/01/10 05:08:26;;;;;;;19.27;4.27;;;5.20;99.90;;;;;;5095635;28;20164;-69
2023/01/10 05:10:51;;;;;;;24.37;4.63;;;5.20;99.90;;;;;;5094992;28;20250;-69
2023/01/10 05:13:17;;;;;;;22.90;4.47;;;5.20;99.90;;;;;;5094916;28;20654;-70
2023/01/10 05:15:42;;;;;;;20.40;4.13;;;5.20;99.90;;;;;;5095035;28;20262;-70
2023/01/10 05:18:08;;;;;;;17.03;4.30;;;5.20;99.90;;;;;;5095391;28;20164;-70
2023/01/10 05:20:34;;;;;;;17.03;4.10;;;5.30;99.90;;;;;;5094836;28;20176;-70
2023/01/10 05:22:59;;;;;;;20.40;4.10;;;5.30;99.90;;;;;;5095166;28;20209;-70
2023/01/10 05:25:25;;;;;;;24.13;4.57;;;5.30;99.90;;;;;;5093581;28;20197;-70
2023/01/10 05:27:50;;;;;;;23.53;4.43;;;5.30;99.90;;;;;;5095061;28;20183;-70
2023/01/10 05:30:16;;;;;;;24.27;4.77;;;5.40;99.90;;;;;;5094826;28;20633;-71
2023/01/10 05:32:42;;;;;;;24.37;4.60;;;5.40;99.90;;;;;;5094521;28;20176;-69
2023/01/10 05:35:08;;;;;;;18.77;3.90;;;5.40;99.90;;;;;;5094989;28;20218;-71
2023/01/10 05:37:33;;;;;;;24.50;4.57;;;5.40;99.90;;;;;;5094801;28;20209;-71
2023/01/10 05:39:59;;;;;;;18.43;3.87;;;5.40;99.90;;;;;;5093010;28;20176;-70
2023/01/10 05:42:25;;;;;;;16.27;4.40;;;5.40;99.90;;;;;;5093096;28;20176;-69
2023/01/10 05:44:50;;;;;;;22.23;4.20;;;5.40;99.90;;;;;;5094244;28;20261;-71
2023/01/10 05:47:16;;;;;;;20.57;4.27;;;5.40;99.90;;;;;;5094234;28;20172;-70
2023/01/10 05:49:41;;;;;;;22.23;5.13;;;5.40;99.90;;;;;;5094695;28;20172;-69
2023/01/10 05:52:07;;;;;;;21.30;3.90;;;5.30;99.90;;;;;;5093871;28;20174;-70
2023/01/10 05:54:32;;;;;;;21.43;4.03;;;5.30;99.90;;;;;;5093803;28;20681;-70
2023/01/10 05:56:58;;;;;;;16.50;3.33;;;5.30;99.90;;;;;;5093795;28;20255;-70
2023/01/10 05:59:24;;;;;;;14.13;3.83;;;5.30;99.90;;;;;;5093717;28;20199;-70
2023/01/10 06:01:49;;;;;;;18.70;4.00;;;5.30;99.90;;;;;;5093572;28;20498;-71
2023/01/10 06:04:15;;;;;;;16.80;4.67;;;5.30;99.90;;;;;;5093639;28;20179;-69
2023/01/10 06:06:41;;;;;;;16.83;3.33;;;5.30;99.90;;;;;;5094150;28;20183;-70
2023/01/10 06:09:06;;;;;;;15.40;3.80;;;5.30;99.90;;;;;;5093537;28;20172;-69
2023/01/10 06:11:35;;;;;;;23.93;4.43;;;5.30;99.90;;;;;;5093151;28;20216;-70
2023/01/10 06:14:01;;;;;;;21.27;4.83;;;5.30;99.90;;;;;;5093241;28;20230;-69
2023/01/10 06:16:27;;;;;;;19.80;4.50;;;5.30;99.90;;;;;;5093587;28;20167;-70
2023/01/10 06:18:53;;;;;;;16.63;3.80;;;5.30;99.90;;;;;;5091683;28;20545;-70
2023/01/10 06:21:18;;;;;;;22.60;4.90;;;5.30;99.90;;;;;;5093264;28;20187;-70
2023/01/10 06:23:44;;;;;;;18.60;3.83;;;5.30;99.90;;;;;;5093985;28;20164;-70
2023/01/10 06:26:10;;;;;;;18.73;3.47;;;5.20;99.90;;;;;;5093198;28;20623;-70
2023/01/10 06:28:36;;;;;;;22.70;4.83;;;5.20;99.90;;;;;;5091664;28;20172;-70
2023/01/10 06:31:02;;;;;;;27.23;4.30;;;5.20;99.90;;;;;;5092595;28;20262;-70
2023/01/10 06:33:27;;;;;;;20.30;3.97;;;5.20;99.90;;;;;;5092956;28;20293;-70
2023/01/10 06:35:53;;;;;;;17.83;4.63;;;5.10;99.90;;;;;;5092642;28;20229;-70
2023/01/10 06:38:18;;;;;;;20.57;4.23;;;5.20;99.90;;;;;;5091389;28;20258;-70
2023/01/10 06:40:44;;;;;;;14.40;4.00;;;5.10;99.90;;;;;;5093128;28;20233;-70
2023/01/10 06:43:09;;;;;;;16.70;4.13;;;5.10;99.90;;;;;;5090964;28;20223;-71
2023/01/10 06:45:35;;;;;;;17.23;4.70;;;5.10;99.90;;;;;;5092901;28;20168;-70
2023/01/10 06:48:01;;;;;;;22.17;4.60;;;5.10;99.90;;;;;;5091581;28;20179;-70
2023/01/10 06:50:26;;;;;;;22.07;4.27;;;5.10;99.90;;;;;;5092131;28;20178;-70
2023/01/10 06:52:59;;;;;;;17.43;4.03;;;5.10;99.90;;;;;;5092820;28;20195;-69
2023/01/10 06:55:25;;;;;;;19.57;4.43;;;5.10;99.90;;;;;;5092661;28;20207;-71
2023/01/10 06:57:59;;;;;;;19.27;4.13;;;5.10;99.90;;;;;;5092367;28;20160;-71
2023/01/10 07:00:26;;;;;;;20.03;4.57;;;5.10;99.90;;;;;;5091801;28;20631;-71
2023/01/10 07:02:53;;;;;;;19.60;3.87;;;5.10;99.90;;;;;;5090689;28;20639;-71
2023/01/10 07:05:19;;;;;;;20.03;4.07;;;5.10;99.90;;;;;;5092210;28;20252;-70
2023/01/10 07:07:45;;;;;;;21.50;4.13;;;5.10;99.90;;;;;;5090473;28;20175;-71
2023/01/10 07:10:11;;;;;;;20.87;3.70;;;5.10;99.90;;;;;;5092517;28;20635;-71
2023/01/10 07:12:37;;;;;;;24.10;4.23;;;5.10;99.90;;;;;;5091739;28;20270;-70
2023/01/10 07:15:03;;;;;;;15.17;3.60;;;5.10;99.90;;;;;;5091599;28;20342;-71
2023/01/10 07:17:29;;;;;;;24.60;4.73;;;5.10;99.90;;;;;;5092034;28;20646;-70
2023/01/10 07:19:55;;;;;;;17.83;4.10;;;5.10;99.90;;;;;;5092154;28;20631;-70
2023/01/10 07:22:20;;;;;;;15.30;4.27;;;5.10;99.90;;;;;;5092631;28;20168;-70
2023/01/10 07:24:46;;;;;;;17.77;4.37;;;5.00;99.90;;;;;;5090796;28;20602;-70
2023/01/10 07:27:12;;;;;;;20.67;3.83;;;5.00;99.90;;;;;;5085283;28;20188;-70
2023/01/10 07:29:37;;;;;;;17.27;4.50;;;5.10;99.90;;;;;;5076775;28;20264;-70
2023/01/10 07:32:03;;;;;;;18.10;4.27;;;5.10;99.90;;;;;;5075798;28;20624;-70
2023/01/10 07:34:29;;;;;;;17.60;3.83;;;5.10;99.90;;;;;;5073186;28;20212;-70
2023/01/10 07:36:55;;;;;;;19.17;4.43;;;5.10;99.90;;;;;;5080888;28;20631;-71
2023/01/10 07:39:20;;;;;;;21.67;4.70;;;5.10;99.90;;;;;;5073813;28;20176;-71
2023/01/10 07:41:47;;;;;;;18.50;4.90;;;5.10;99.90;;;;;;5079973;28;20179;-71
2023/01/10 07:44:13;;;;;;;22.07;4.53;;;5.10;99.90;;;;;;5070058;28;20235;-70
2023/01/10 07:46:38;;;;;;;19.73;4.60;;;5.10;99.90;;;;;;5072686;28;20176;-69
2023/01/10 07:49:04;;;;;;;16.80;3.93;;;5.20;99.90;;;;;;5070232;28;20180;-71
2023/01/10 07:51:30;;;;;;;21.40;4.80;;;5.20;99.90;;;;;;5071919;28;20660;-71
2023/01/10 07:53:56;;;;;;;19.97;5.10;;;5.20;99.90;;;;;;5073980;28;20698;-70
2023/01/10 07:56:23;;;;;;;17.40;5.03;;;5.20;99.90;;;;;;5071831;28;20187;-69
2023/01/10 07:58:49;;;;;;;16.03;4.23;;;5.30;99.90;;;;;;5070676;28;20187;-70
2023/01/10 08:01:14;;;;;;;17.67;4.13;;;5.40;99.90;;;;;;5075825;28;20172;-69
2023/01/10 08:03:40;;;;;;;19.20;4.23;;;5.50;99.90;;;;;;5085371;28;20647;-68
2023/01/10 08:06:09;;;;;;;17.23;4.70;;;5.60;99.90;;;;;;5073364;28;20330;-70
2023/01/10 08:08:35;;;;;;;21.03;4.80;;;5.70;99.90;;;;;;5082376;28;20542;-68
2023/01/10 08:11:01;;;;;;;21.43;4.23;;;5.80;99.90;;;;;;5076816;28;20230;-70
2023/01/10 08:13:28;;;;;;;19.13;4.60;;;5.90;99.90;;;;;;5072266;28;20658;-70
2023/01/10 08:15:54;;;;;;;22.70;4.47;;;6.00;99.90;;;;;;5086589;28;20189;-69
2023/01/10 08:18:21;;;;;;;16.60;4.50;;;6.10;99.90;;;;;;5086382;28;20226;-69
2023/01/10 08:20:51;;;;;;;15.23;3.83;;;6.20;99.90;;;;;;5078044;28;20185;-70
2023/01/10 08:23:17;;;;;;;17.80;4.23;;;6.30;99.90;;;;;;5078782;28;20184;-70
2023/01/10 08:25:43;;;;;;;16.10;3.90;;;6.40;99.90;;;;;;5090916;28;20244;-69
2023/01/10 08:28:09;;;;;;;16.70;3.97;;;6.40;99.90;;;;;;5072084;28;20251;-70
2023/01/10 08:30:36;;;;;;;17.83;4.27;;;6.50;99.90;;;;;;5075012;28;20176;-69
2023/01/10 08:33:03;;;;;;;14.47;4.03;;;6.50;99.90;;;;;;5091962;28;20187;-70
2023/01/10 08:35:29;;;;;;;17.33;4.03;;;6.50;99.90;;;;;;5093885;28;20211;-69
2023/01/10 08:37:58;;;;;;;12.90;4.00;;;6.50;99.90;;;;;;5094478;28;20502;-70
2023/01/10 08:40:24;;;;;;;14.40;4.40;;;6.50;99.90;;;;;;5092884;28;20179;-69
2023/01/10 08:43:01;;;;;;;16.03;4.17;;;6.60;99.90;;;;;;5082550;28;20184;-69
2023/01/10 08:45:28;;;;;;;16.17;4.83;;;6.60;99.90;;;;;;5097540;28;20195;-70
2023/01/10 08:47:54;;;;;;;22.43;4.20;;;6.60;99.90;;;;;;5092831;28;20655;-70
2023/01/10 08:50:20;;;;;;;22.07;4.57;;;6.60;99.90;;;;;;5107979;28;20163;-69
2023/01/10 08:52:47;;;;;;;24.33;5.00;;;6.60;99.90;;;;;;5093664;28;20206;-70
2023/01/10 08:55:12;;;;;;;19.00;4.50;;;6.50;99.90;;;;;;5091877;28;20223;-70
2023/01/10 08:57:38;;;;;;;20.33;4.60;;;6.50;99.90;;;;;;5101800;28;20172;-69
2023/01/10 09:00:05;;;;;;;21.40;4.50;;;6.50;99.90;;;;;;5091831;28;20216;-70
2023/01/10 09:02:30;;;;;;;18.77;4.20;;;6.60;99.90;;;;;;5080480;28;20246;-70
2023/01/10 09:04:56;;;;;;;19.50;4.67;;;6.60;99.90;;;;;;5090805;28;20638;-69
2023/01/10 09:07:22;;;;;;;21.47;4.37;;;6.70;99.90;;;;;;5095402;28;20179;-67
2023/01/10 09:09:47;;;;;;;16.17;5.07;;;6.70;99.90;;;;;;5113729;28;20179;-68
2023/01/10 09:14:58;;;;;;;19.27;4.73;;;6.80;99.90;;;;;;5085373;28;20271;-68
2023/01/10 09:17:24;;;;;;;15.03;4.33;;;6.80;99.90;;;;;;5095858;28;20618;-69
2023/01/10 09:19:49;;;;;;;17.97;4.33;;;6.80;99.90;;;;;;5095206;28;20233;-68
2023/01/10 09:22:15;;;;;;;24.20;5.17;;;6.80;99.90;;;;;;5083888;28;20581;-68
2023/01/10 09:24:42;;;;;;;18.43;4.53;;;6.80;99.90;;;;;;5094885;28;20244;-69
2023/01/10 09:27:09;;;;;;;16.43;4.70;;;6.90;99.90;;;;;;5105553;28;20591;-69
2023/01/10 09:29:35;;;;;;;22.03;4.73;;;7.10;99.90;;;;;;5103006;28;20272;-69
2023/01/10 09:32:01;;;;;;;17.10;4.60;;;7.00;99.90;;;;;;5098477;28;20303;-68
2023/01/10 09:34:27;;;;;;;19.73;4.43;;;7.10;99.90;;;;;;5098224;28;20348;-70
2023/01/10 09:36:53;;;;;;;23.03;4.43;;;7.10;99.90;;;;;;5097085;28;20175;-69
2023/01/10 09:39:20;;;;;;;20.33;4.53;;;7.20;99.90;;;;;;5091764;28;20187;-69
2023/01/10 09:42:00;;;;;;;21.70;4.90;;;7.30;99.90;;;;;;5101218;28;20267;-69
2023/01/10 09:44:48;;;;;;;15.83;4.47;;;7.40;99.90;;;;;;5094650;28;20311;-69
2023/01/10 09:47:53;;;;;;;20.47;5.30;;;7.40;99.90;;;;;;5083908;28;20639;-71
2023/01/10 09:50:34;;;;;;;18.93;4.77;;;7.50;99.90;;;;;;5085525;28;20199;-69
2023/01/10 09:53:25;;;;;;;21.83;4.67;;;7.60;99.90;;;;;;5106941;28;20619;-69
2023/01/10 09:55:56;;;;;;;25.07;5.27;;;7.70;99.90;;;;;;5082191;28;20284;-70
2023/01/10 09:58:29;;;;;;;18.30;4.70;;;7.70;99.90;;;;;;5080051;28;20272;-70
2023/01/10 10:01:09;;;;;;;23.00;5.20;;;7.80;99.90;;;;;;5076344;28;20199;-70
2023/01/10 10:03:57;;;;;;;15.13;4.73;;;7.80;99.90;;;;;;5079842;28;20657;-68
2023/01/10 10:06:23;;;;;;;18.00;4.87;;;7.80;99.90;;;;;;5086633;28;20176;-70
2023/01/10 10:08:50;;;;;;;20.50;4.60;;;7.80;99.90;;;;;;5101253;28;20699;-70
2023/01/10 10:11:17;;;;;;;20.47;4.57;;;7.90;99.90;;;;;;5104585;28;20210;-69
2023/01/10 10:13:49;;;;;;;18.57;4.77;;;8.00;99.90;;;;;;5101889;28;20252;-68
2023/01/10 10:16:25;;;;;;;25.67;4.77;;;8.00;99.90;;;;;;5089504;28;20177;-70
2023/01/10 10:18:56;;;;;;;18.93;4.87;;;8.00;99.90;;;;;;5077415;28;20202;-71
2023/01/10 10:21:40;;;;;;;14.93;4.50;;;8.00;99.90;;;;;;5092685;28;20233;-70
2023/01/10 10:24:41;;;;;;;14.73;4.27;;;8.10;99.90;;;;;;5088871;28;20179;-69
2023/01/10 10:27:23;;;;;;;17.53;4.27;;;8.30;99.90;;;;;;5080057;28;20181;-71
2023/01/10 10:29:58;;;;;;;21.57;4.70;;;8.30;99.90;;;;;;5081716;28;20179;-68
2023/01/10 10:32:27;;;;;;;20.40;4.17;;;8.50;99.90;;;;;;5106619;28;20236;-70
2023/01/10 10:35:06;;;;;;;19.87;4.70;;;8.50;99.90;;;;;;5091596;28;20207;-71
2023/01/10 10:37:48;;;;;;;15.93;4.57;;;8.60;99.90;;;;;;5102111;28;20206;-70
2023/01/10 10:40:21;;;;;;;20.80;4.07;;;8.70;99.90;;;;;;5104585;28;20314;-68
2023/01/10 10:42:50;;;;;;;16.03;4.50;;;8.80;99.90;;;;;;5083723;28;20198;-70
2023/01/10 10:45:16;;;;;;;15.13;4.03;;;8.90;99.90;;;;;;5071901;28;20267;-68
2023/01/10 10:47:48;;;;;;;17.90;3.90;;;9.00;99.90;;;;;;5071217;28;20278;-70
2023/01/10 10:50:14;;;;;;;22.23;4.63;;;8.90;99.90;;;;;;5072002;28;20196;-69
2023/01/10 10:52:41;;;;;;;16.17;4.23;;;8.70;99.90;;;;;;5073267;28;20215;-69
2023/01/10 10:55:13;;;;;;;22.67;5.00;;;8.80;99.90;;;;;;5071562;28;20212;-71
2023/01/10 10:57:39;;;;;;;16.10;4.33;;;8.80;99.90;;;;;;5078098;28;20178;-69
2023/01/10 11:00:07;;;;;;;18.57;4.53;;;8.80;99.90;;;;;;5082180;28;20636;-69
2023/01/10 11:02:44;;;;;;;18.83;4.87;;;8.80;99.90;;;;;;5071292;28;20184;-70
2023/01/10 11:05:20;;;;;;;14.43;4.40;;;8.80;99.90;;;;;;5081466;28;20171;-69
2023/01/10 11:07:47;;;;;;;16.07;3.90;;;8.90;99.90;;;;;;5112149;28;20190;-70
2023/01/10 11:12:49;;;;;;;19.77;5.13;;;8.80;99.90;;;;;;5091931;28;20195;-69
2023/01/10 11:15:42;;;;;;;13.10;4.07;;;8.80;99.90;;;;;;5091049;28;20574;-71
2023/01/10 11:18:16;;;;;;;15.13;4.63;;;8.80;99.90;;;;;;5092459;28;20570;-69
2023/01/10 11:20:48;;;;;;;17.63;4.03;;;8.90;99.90;;;;;;5092395;28;20175;-71
2023/01/10 11:23:25;;;;;;;17.97;4.83;;;9.00;99.90;;;;;;5090462;28;20198;-71
2023/01/10 11:25:51;;;;;;;16.07;4.43;;;9.10;99.90;;;;;;5092898;28;20160;-71
2023/01/10 11:28:22;;;;;;;19.00;5.07;;;9.10;99.90;;;;;;5091416;28;20515;-70
2023/01/10 11:30:49;;;;;;;15.47;4.00;;;9.10;99.90;;;;;;5091155;28;20171;-69
2023/01/10 11:33:24;;;;;;;18.43;5.00;;;9.00;99.90;;;;;;5092126;28;20175;-71
2023/01/10 11:36:02;;;;;;;17.33;4.60;;;8.90;99.90;;;;;;5091311;28;20183;-71
2023/01/10 11:38:29;;;;;;;19.47;5.43;;;9.00;99.90;;;;;;5101915;28;20602;-71
2023/01/10 11:41:21;;;;;;;16.90;5.03;;;9.00;99.90;;;;;;5112640;28;20170;-74
2023/01/10 11:43:46;;;;;;;24.07;4.57;;;9.10;99.90;;;;;;5112265;28;20219;-70
2023/01/10 11:46:20;;;;;;;26.60;4.50;;;9.10;99.90;;;;;;5078909;28;20753;-69
2023/01/10 11:49:11;;;;;;;18.00;5.20;;;8.90;99.90;;;;;;5088353;28;20175;-71
2023/01/10 11:51:43;;;;;;;14.07;4.30;;;9.00;99.90;;;;;;5097018;28;20557;-70
2023/01/10 11:54:09;;;;;;;18.73;4.70;;;9.00;99.90;;;;;;5094300;28;20209;-70
2023/01/10 11:56:38;;;;;;;20.80;4.73;;;9.00;99.90;;;;;;5082467;28;20176;-69
2023/01/10 11:59:13;;;;;;;18.47;5.53;;;9.10;99.90;;;;;;5100477;28;20266;-69
2023/01/10 12:01:57;;;;;;;19.93;5.20;;;9.20;99.90;;;;;;5092818;28;20171;-69
2023/01/10 12:04:25;;;;;;;17.10;5.10;;;9.30;99.90;;;;;;5097471;28;20179;-70
2023/01/10 12:06:54;;;;;;;18.30;4.30;;;9.30;99.90;;;;;;5106531;28;20256;-69
2023/01/10 12:09:35;;;;;;;18.77;4.57;;;9.20;99.90;;;;;;5100656;28;20173;-70
2023/01/10 12:12:04;;;;;;;18.10;3.90;;;9.20;99.90;;;;;;5094985;28;20196;-70
2023/01/10 12:14:29;;;;;;;18.27;4.50;;;9.10;99.90;;;;;;5089809;28;20206;-68
2023/01/10 12:17:01;;;;;;;23.03;7.70;;;9.10;99.90;;;;;;5103603;28;20187;-68
2023/01/10 12:19:27;;;;;;;25.37;6.20;;;9.10;99.90;;;;;;5108868;28;20274;-68
2023/01/10 12:21:56;;;;;;;18.37;4.43;;;9.10;99.90;;;;;;5086535;28;20212;-68
2023/01/10 12:24:49;;;;;;;14.20;4.17;;;9.10;99.90;;;;;;5084975;28;20179;-69
2023/01/10 12:27:17;;;;;;;23.80;5.73;;;9.00;99.90;;;;;;5101273;28;20187;-67
2023/01/10 12:30:03;;;;;;;16.93;3.80;;;9.00;99.90;;;;;;5095546;28;21729;-70
2023/01/10 12:32:37;;;;;;;115.17;62.50;;;9.10;99.90;;;;;;5097970;28;20193;-70
2023/01/10 12:35:09;;;;;;;19.90;6.67;;;9.00;99.90;;;;;;5103499;28;20315;-68
2023/01/10 12:37:34;;;;;;;26.93;8.23;;;8.90;99.90;;;;;;5104753;28;20225;-71
2023/01/10 12:40:24;;;;;;;85.23;41.47;;;8.90;99.90;;;;;;5108029;28;20184;-71
2023/01/10 12:44:22;;;;;;;38.53;16.00;;;8.80;99.90;;;;;;5088932;28;20688;-70
2023/01/10 12:46:28;;;;;;;33.67;21.90;;;8.70;99.90;;;;;;5072078;28;20654;-70
2023/01/10 12:48:59;;;;;;;62.73;45.07;;;8.60;99.90;;;;;;5098654;28;20671;-69
2023/01/10 12:51:28;;;;;;;95.03;78.20;;;8.50;99.90;;;;;;5102143;28;20179;-70
2023/01/10 12:53:57;;;;;;;52.73;39.07;;;8.40;99.90;;;;;;5097672;28;20222;-68
2023/01/10 12:56:23;;;;;;;48.10;32.87;;;8.50;99.90;;;;;;5106787;28;20670;-67
2023/01/10 12:58:58;;;;;;;124.57;109.00;;;8.40;99.90;;;;;;5079335;28;20212;-69
2023/01/10 13:01:35;;;;;;;21.30;6.50;;;8.50;99.90;;;;;;5075238;28;20674;-68
2023/01/10 13:04:05;;;;;;;16.90;4.20;;;8.40;99.90;;;;;;5105386;28;20180;-68
2023/01/10 13:06:34;;;;;;;15.60;4.03;;;8.50;99.90;;;;;;5090681;28;20175;-71
2023/01/10 13:09:17;;;;;;;11.67;4.43;;;8.50;99.90;;;;;;5102976;28;20282;-67
2023/01/10 13:12:09;;;;;;;15.43;5.63;;;8.50;99.90;;;;;;5080512;28;20672;-68